| time (UTC) | temp C | wind direction | speed KPH | gust KPH | rain 1hr cm | rain 24hr cm | rain mn cm | humidity % | barometer mb |
| 20260508144553 | 16 | 158 | 1.6 | 8.0 | 0.00 | 0.00 | 0.00 | 55 | 1018.3 |
| 20260508143107 | 16 | 202 | 1.6 | 11.3 | 0.00 | 0.00 | 0.00 | 57 | 1018.2 |
| 20260508141550 | 15 | 208 | 3.2 | 9.7 | 0.00 | 0.00 | 0.00 | 58 | 1018.2 |
| 20260508140110 | 16 | 22 | 3.2 | 11.3 | 0.00 | 0.00 | 0.00 | 56 | 1018.0 |
| 20260508134554 | 15 | 90 | 1.6 | 8.0 | 0.00 | 0.00 | 0.00 | 59 | 1018.0 |
| 20260508133101 | 15 | 0 | 3.2 | 9.7 | 0.00 | 0.00 | 0.00 | 61 | 1018.0 |
| 20260508131600 | 15 | 80 | 3.2 | 8.0 | 0.00 | 0.00 | 0.00 | 62 | 1017.9 |
| 20260508130051 | 15 | 72 | 1.6 | 6.4 | 0.00 | 0.00 | 0.00 | 65 | 1017.9 |
| 20260508124550 | 13 | 124 | 1.6 | 6.4 | 0.00 | 0.00 | 0.00 | 71 | 1017.8 |
| 20260508123051 | 12 | 12 | 0.0 | 4.8 | 0.00 | 0.00 | 0.00 | 77 | 1017.6 |
| 20260508121552 | 11 | 0 | 0.0 | 4.8 | 0.00 | 0.00 | 0.00 | 82 | 1017.7 |
| 20260508120054 | 10 | 329 | 0.0 | 3.2 | 0.00 | 0.00 | 0.00 | 86 | 1017.3 |
| 20260508114548 | 9 | 335 | 0.0 | 4.8 | 0.00 | 0.03 | 0.00 | 90 | 1017.1 |
| 20260508113046 | 8 | 338 | 1.6 | 4.8 | 0.00 | 0.03 | 0.00 | 94 | 1017.0 |
| 20260508111600 | 7 | 0 | 0.0 | 0.0 | 0.00 | 0.03 | 0.00 | 96 | 1016.6 |
| 20260508104549 | 7 | 0 | 0.0 | 0.0 | 0.00 | 0.03 | 0.00 | 94 | 1016.3 |
| 20260508103053 | 6 | 0 | 0.0 | 0.0 | 0.00 | 0.03 | 0.00 | 94 | 1015.8 |
| 20260508101555 | 7 | 0 | 0.0 | 0.0 | 0.00 | 0.03 | 0.00 | 94 | 1015.7 |
| 20260508100056 | 7 | 0 | 0.0 | 0.0 | 0.00 | 0.03 | 0.00 | 94 | 1015.5 |
| 20260508094551 | 7 | 0 | 0.0 | 0.0 | 0.00 | 0.03 | 0.00 | 94 | 1015.4 |
| 20260508093051 | 7 | 0 | 0.0 | 0.0 | 0.00 | 0.03 | 0.00 | 94 | 1015.4 |
| 20260508091607 | 7 | 0 | 0.0 | 0.0 | 0.00 | 0.03 | 0.00 | 94 | 1015.3 |
| 20260508090056 | 8 | 0 | 0.0 | 0.0 | 0.00 | 0.03 | 0.00 | 93 | 1015.3 |
| 20260508084603 | 8 | 0 | 0.0 | 0.0 | 0.00 | 0.03 | 0.00 | 94 | 1015.1 |
| 20260508083101 | 8 | 0 | 0.0 | 0.0 | 0.00 | 0.03 | 0.00 | 93 | 1015.0 |
| 20260508081555 | 8 | 0 | 0.0 | 0.0 | 0.00 | 0.03 | 0.00 | 93 | 1015.1 |
| 20260508080104 | 8 | 0 | 1.6 | 4.8 | 0.00 | 0.03 | 0.00 | 94 | 1015.0 |
| 20260508074549 | 8 | 0 | 0.0 | 0.0 | 0.00 | 0.03 | 0.00 | 93 | 1014.6 |
| 20260508073057 | 8 | 0 | 0.0 | 0.0 | 0.00 | 0.03 | 0.00 | 93 | 1014.7 |
| 20260508071551 | 8 | 0 | 0.0 | 4.8 | 0.00 | 0.03 | 0.00 | 94 | 1014.8 |
| 20260508070053 | 8 | 297 | 0.0 | 0.0 | 0.00 | 0.03 | 0.00 | 93 | 1014.6 |
| 20260508064556 | 8 | 0 | 0.0 | 0.0 | 0.00 | 0.03 | 0.00 | 93 | 1014.4 |
| 20260508063053 | 9 | 0 | 0.0 | 0.0 | 0.00 | 0.03 | 0.00 | 93 | 1014.3 |
| 20260508061551 | 9 | 0 | 0.0 | 0.0 | 0.00 | 0.03 | 0.00 | 93 | 1014.4 |
| 20260508060052 | 9 | 0 | 0.0 | 0.0 | 0.00 | 0.03 | 0.00 | 92 | 1014.5 |
| 20260508054558 | 10 | 0 | 0.0 | 0.0 | 0.00 | 0.03 | 0.00 | 92 | 1014.4 |
| 20260508053056 | 10 | 0 | 0.0 | 0.0 | 0.00 | 0.03 | 0.00 | 92 | 1014.4 |
| 20260508051608 | 10 | 0 | 0.0 | 0.0 | 0.00 | 0.03 | 0.00 | 91 | 1014.3 |
| 20260508050103 | 10 | 0 | 0.0 | 0.0 | 0.00 | 0.03 | 0.00 | 91 | 1014.2 |
| 20260508044555 | 10 | 0 | 0.0 | 0.0 | 0.00 | 0.03 | 0.00 | 91 | 1014.0 |
| 20260508043056 | 10 | 321 | 0.0 | 3.2 | 0.00 | 0.03 | 0.00 | 90 | 1014.1 |
| 20260508041558 | 10 | 0 | 0.0 | 3.2 | 0.00 | 0.03 | 0.00 | 89 | 1014.0 |
| 20260508040101 | 11 | 0 | 0.0 | 3.2 | 0.00 | 0.03 | 0.00 | 88 | 1013.9 |
| 20260508034552 | 11 | 0 | 0.0 | 3.2 | 0.00 | 0.03 | 0.03 | 87 | 1014.1 |
| 20260508033048 | 11 | 0 | 0.0 | 4.8 | 0.00 | 0.03 | 0.03 | 86 | 1013.7 |
| 20260508031552 | 12 | 0 | 0.0 | 4.8 | 0.00 | 0.03 | 0.03 | 85 | 1013.9 |
| 20260508030054 | 12 | 0 | 0.0 | 3.2 | 0.00 | 0.03 | 0.03 | 83 | 1013.8 |
| 20260508024547 | 12 | 0 | 0.0 | 0.0 | 0.00 | 0.05 | 0.03 | 82 | 1013.4 |
| 20260508023053 | 12 | 0 | 0.0 | 0.0 | 0.00 | 0.05 | 0.03 | 81 | 1013.4 |
| 20260508021550 | 13 | 0 | 0.0 | 3.2 | 0.00 | 0.05 | 0.03 | 79 | 1013.0 |
| 20260508020101 | 13 | 0 | 0.0 | 3.2 | 0.00 | 0.05 | 0.03 | 74 | 1012.9 |
| 20260508014551 | 14 | 0 | 0.0 | 3.2 | 0.00 | 0.05 | 0.03 | 74 | 1012.8 |
| 20260508013050 | 15 | 60 | 0.0 | 3.2 | 0.00 | 0.05 | 0.03 | 70 | 1012.4 |
| 20260508011547 | 15 | 11 | 0.0 | 3.2 | 0.00 | 0.05 | 0.03 | 67 | 1012.1 |
| 20260508010053 | 15 | 360 | 1.6 | 14.5 | 0.00 | 0.05 | 0.03 | 65 | 1011.7 |
| 20260508004555 | 16 | 332 | 4.8 | 22.5 | 0.00 | 0.05 | 0.03 | 63 | 1011.5 |
| 20260508003052 | 16 | 319 | 11.3 | 20.9 | 0.00 | 0.05 | 0.03 | 64 | 1011.3 |
| 20260508001554 | 16 | 333 | 9.7 | 17.7 | 0.00 | 0.05 | 0.03 | 79 | 1011.2 |
| 20260508000057 | 16 | 10 | 4.8 | 16.1 | 0.00 | 0.05 | 0.03 | 86 | 1011.2 |
| 20260507234558 | 16 | 65 | 4.8 | 14.5 | 0.00 | 0.05 | 0.03 | 85 | 1010.8 |
| 20260507233115 | 17 | 76 | 6.4 | 14.5 | 0.00 | 0.05 | 0.03 | 85 | 1010.4 |
| 20260507231600 | 17 | 50 | 4.8 | 16.1 | 0.00 | 0.05 | 0.03 | 84 | 1010.3 |
| 20260507230055 | 17 | 51 | 4.8 | 14.5 | 0.00 | 0.05 | 0.03 | 84 | 1009.9 |
| 20260507224552 | 17 | 90 | 3.2 | 11.3 | 0.00 | 0.05 | 0.03 | 83 | 1009.7 |
| 20260507223113 | 17 | 39 | 8.0 | 20.9 | 0.00 | 0.05 | 0.03 | 83 | 1009.2 |
| 20260507221557 | 17 | 75 | 4.8 | 27.4 | 0.00 | 0.05 | 0.03 | 83 | 1009.1 |
| 20260507220056 | 17 | 17 | 11.3 | 25.7 | 0.00 | 0.05 | 0.03 | 83 | 1009.0 |
| 20260507214553 | 17 | 59 | 14.5 | 29.0 | 0.00 | 0.08 | 0.03 | 83 | 1008.7 |
| 20260507213058 | 17 | 59 | 14.5 | 30.6 | 0.00 | 0.08 | 0.03 | 85 | 1008.6 |
| 20260507211602 | 17 | 70 | 11.3 | 24.1 | 0.00 | 0.08 | 0.03 | 86 | 1008.0 |
| 20260507210113 | 17 | 90 | 12.9 | 27.4 | 0.00 | 0.08 | 0.03 | 86 | 1007.6 |
| 20260507204555 | 18 | 71 | 8.0 | 22.5 | 0.00 | 0.08 | 0.03 | 87 | 1007.3 |
| 20260507203056 | 20 | 103 | 11.3 | 22.5 | 0.00 | 0.08 | 0.03 | 81 | 1007.6 |
| 20260507201600 | 21 | 244 | 6.4 | 12.9 | 0.00 | 0.08 | 0.03 | 79 | 1007.2 |
| 20260507200057 | 21 | 165 | 8.0 | 17.7 | 0.00 | 0.08 | 0.03 | 85 | 1007.2 |
| 20260507194556 | 21 | 209 | 9.7 | 27.4 | 0.00 | 0.08 | 0.03 | 89 | 1007.3 |
| 20260507193048 | 20 | 209 | 6.4 | 11.3 | 0.00 | 0.08 | 0.03 | 90 | 1007.4 |
| 20260507191553 | 21 | 221 | 6.4 | 14.5 | 0.00 | 0.08 | 0.03 | 86 | 1007.4 |
| 20260507190057 | 22 | 175 | 8.0 | 20.9 | 0.00 | 0.08 | 0.03 | 76 | 1007.7 |
| 20260507184551 | 23 | 225 | 8.0 | 19.3 | 0.00 | 0.10 | 0.03 | 74 | 1007.5 |
| 20260507183112 | 23 | 233 | 4.8 | 24.1 | 0.00 | 0.10 | 0.03 | 74 | 1007.6 |
| 20260507181558 | 22 | 269 | 8.0 | 16.1 | 0.00 | 0.10 | 0.03 | 79 | 1007.7 |
| 20260507180053 | 22 | 225 | 8.0 | 19.3 | 0.00 | 0.10 | 0.03 | 75 | 1007.9 |
| 20260507174602 | 21 | 178 | 11.3 | 19.3 | 0.00 | 0.10 | 0.03 | 78 | 1008.0 |
| 20260507173102 | 21 | 211 | 9.7 | 17.7 | 0.00 | 0.10 | 0.03 | 79 | 1008.2 |
| 20260507171553 | 21 | 195 | 4.8 | 14.5 | 0.00 | 0.10 | 0.03 | 83 | 1008.3 |
| 20260507170054 | 21 | 254 | 4.8 | 17.7 | 0.00 | 0.10 | 0.03 | 85 | 1008.6 |
| 20260507164622 | 20 | 245 | 6.4 | 14.5 | 0.00 | 0.13 | 0.03 | 87 | 1008.9 |
| 20260507163059 | 20 | 202 | 6.4 | 14.5 | 0.00 | 0.13 | 0.03 | 88 | 1008.9 |
| 20260507161559 | 19 | 259 | 8.0 | 14.5 | 0.00 | 0.13 | 0.03 | 89 | 1008.9 |
| 20260507160052 | 19 | 232 | 8.0 | 14.5 | 0.00 | 0.13 | 0.03 | 92 | 1009.3 |
| 20260507154556 | 18 | 225 | 4.8 | 11.3 | 0.00 | 0.13 | 0.03 | 94 | 1008.9 |
| 20260507153057 | 18 | 225 | 3.2 | 11.3 | 0.00 | 0.13 | 0.03 | 97 | 1008.5 |
| 20260507151553 | 17 | 234 | 1.6 | 9.7 | 0.00 | 0.13 | 0.03 | 98 | 1008.7 |
| 20260507150055 | 17 | 223 | 4.8 | 8.0 | 0.00 | 0.13 | 0.03 | 97 | 1009.5 |